sensor_id;sensor_type;location;lat;lon;timestamp;P1;durP1;ratioP1;P2;durP2;ratioP2
11245;SDS011;59870;50.106;8.580;2023-01-26T00:01:16;20.97;;;17.17;;
11245;SDS011;59870;50.106;8.580;2023-01-26T00:03:45;22.70;;;17.20;;
11245;SDS011;59870;50.106;8.580;2023-01-26T00:06:13;19.40;;;17.20;;
11245;SDS011;59870;50.106;8.580;2023-01-26T00:08:44;23.77;;;17.67;;
11245;SDS011;59870;50.106;8.580;2023-01-26T00:11:14;21.10;;;16.57;;
11245;SDS011;59870;50.106;8.580;2023-01-26T00:13:43;18.50;;;16.20;;
11245;SDS011;59870;50.106;8.580;2023-01-26T00:16:12;20.73;;;16.73;;
11245;SDS011;59870;50.106;8.580;2023-01-26T00:18:40;23.83;;;17.57;;
11245;SDS011;59870;50.106;8.580;2023-01-26T00:21:11;18.43;;;15.97;;
11245;SDS011;59870;50.106;8.580;2023-01-26T00:23:40;20.93;;;16.80;;
11245;SDS011;59870;50.106;8.580;2023-01-26T00:26:08;20.50;;;17.30;;
11245;SDS011;59870;50.106;8.580;2023-01-26T00:28:39;19.53;;;16.67;;
11245;SDS011;59870;50.106;8.580;2023-01-26T00:31:07;21.33;;;16.17;;
11245;SDS011;59870;50.106;8.580;2023-01-26T00:33:38;21.03;;;17.47;;
11245;SDS011;59870;50.106;8.580;2023-01-26T00:36:09;20.83;;;16.83;;
11245;SDS011;59870;50.106;8.580;2023-01-26T00:38:39;24.23;;;17.67;;
11245;SDS011;59870;50.106;8.580;2023-01-26T00:41:07;18.27;;;16.00;;
11245;SDS011;59870;50.106;8.580;2023-01-26T00:43:35;20.67;;;16.67;;
11245;SDS011;59870;50.106;8.580;2023-01-26T00:46:03;29.57;;;18.27;;
11245;SDS011;59870;50.106;8.580;2023-01-26T00:48:30;23.30;;;17.67;;
11245;SDS011;59870;50.106;8.580;2023-01-26T00:50:59;24.40;;;17.90;;
11245;SDS011;59870;50.106;8.580;2023-01-26T00:53:27;22.57;;;17.37;;
11245;SDS011;59870;50.106;8.580;2023-01-26T00:55:54;22.23;;;16.23;;
11245;SDS011;59870;50.106;8.580;2023-01-26T00:58:24;20.53;;;15.83;;
11245;SDS011;59870;50.106;8.580;2023-01-26T01:00:52;18.70;;;16.07;;
11245;SDS011;59870;50.106;8.580;2023-01-26T01:03:19;17.50;;;15.27;;
11245;SDS011;59870;50.106;8.580;2023-01-26T01:05:47;18.57;;;15.43;;
11245;SDS011;59870;50.106;8.580;2023-01-26T01:08:14;19.53;;;16.43;;
11245;SDS011;59870;50.106;8.580;2023-01-26T01:10:42;17.03;;;14.53;;
11245;SDS011;59870;50.106;8.580;2023-01-26T01:13:09;18.20;;;15.77;;
11245;SDS011;59870;50.106;8.580;2023-01-26T01:15:39;20.80;;;15.40;;
11245;SDS011;59870;50.106;8.580;2023-01-26T01:18:06;17.87;;;15.97;;
11245;SDS011;59870;50.106;8.580;2023-01-26T01:20:33;15.97;;;14.23;;
11245;SDS011;59870;50.106;8.580;2023-01-26T01:23:01;15.50;;;13.90;;
11245;SDS011;59870;50.106;8.580;2023-01-26T01:25:28;17.10;;;15.17;;
11245;SDS011;59870;50.106;8.580;2023-01-26T01:27:56;19.70;;;15.60;;
11245;SDS011;59870;50.106;8.580;2023-01-26T01:30:23;17.40;;;14.27;;
11245;SDS011;59870;50.106;8.580;2023-01-26T01:32:50;16.50;;;14.63;;
11245;SDS011;59870;50.106;8.580;2023-01-26T01:35:19;17.50;;;14.83;;
11245;SDS011;59870;50.106;8.580;2023-01-26T01:37:47;16.77;;;14.10;;
11245;SDS011;59870;50.106;8.580;2023-01-26T01:40:14;16.83;;;13.83;;
11245;SDS011;59870;50.106;8.580;2023-01-26T01:42:45;16.10;;;14.33;;
11245;SDS011;59870;50.106;8.580;2023-01-26T01:47:54;15.30;;;13.57;;
11245;SDS011;59870;50.106;8.580;2023-01-26T01:50:25;16.07;;;13.17;;
11245;SDS011;59870;50.106;8.580;2023-01-26T01:52:53;15.30;;;13.30;;
11245;SDS011;59870;50.106;8.580;2023-01-26T01:55:21;14.70;;;13.27;;
11245;SDS011;59870;50.106;8.580;2023-01-26T01:57:55;13.03;;;11.93;;
11245;SDS011;59870;50.106;8.580;2023-01-26T02:00:26;12.10;;;10.90;;
11245;SDS011;59870;50.106;8.580;2023-01-26T02:02:58;12.03;;;10.77;;
11245;SDS011;59870;50.106;8.580;2023-01-26T02:08:47;12.30;;;11.07;;
11245;SDS011;59870;50.106;8.580;2023-01-26T02:14:03;11.43;;;10.53;;
11245;SDS011;59870;50.106;8.580;2023-01-26T02:16:34;10.47;;;9.57;;
11245;SDS011;59870;50.106;8.580;2023-01-26T02:19:02;10.77;;;9.93;;
11245;SDS011;59870;50.106;8.580;2023-01-26T02:21:31;11.10;;;10.10;;
11245;SDS011;59870;50.106;8.580;2023-01-26T02:24:05;10.20;;;9.40;;
11245;SDS011;59870;50.106;8.580;2023-01-26T02:26:34;9.20;;;8.50;;
11245;SDS011;59870;50.106;8.580;2023-01-26T02:29:05;9.90;;;9.20;;
11245;SDS011;59870;50.106;8.580;2023-01-26T02:31:39;9.43;;;8.70;;
11245;SDS011;59870;50.106;8.580;2023-01-26T02:34:07;11.07;;;10.07;;
11245;SDS011;59870;50.106;8.580;2023-01-26T02:36:35;9.60;;;8.90;;
11245;SDS011;59870;50.106;8.580;2023-01-26T02:42:20;9.77;;;9.00;;
11245;SDS011;59870;50.106;8.580;2023-01-26T02:45:09;9.67;;;8.87;;
11245;SDS011;59870;50.106;8.580;2023-01-26T02:47:38;10.27;;;9.47;;
11245;SDS011;59870;50.106;8.580;2023-01-26T02:50:07;10.40;;;9.50;;
11245;SDS011;59870;50.106;8.580;2023-01-26T02:52:35;9.67;;;8.90;;
11245;SDS011;59870;50.106;8.580;2023-01-26T02:55:09;9.37;;;8.67;;
11245;SDS011;59870;50.106;8.580;2023-01-26T02:57:49;8.80;;;8.17;;
11245;SDS011;59870;50.106;8.580;2023-01-26T03:00:23;12.37;;;9.23;;
11245;SDS011;59870;50.106;8.580;2023-01-26T03:02:54;9.20;;;8.27;;
11245;SDS011;59870;50.106;8.580;2023-01-26T03:05:25;8.73;;;8.07;;
11245;SDS011;59870;50.106;8.580;2023-01-26T03:07:54;9.37;;;8.63;;
11245;SDS011;59870;50.106;8.580;2023-01-26T03:10:24;8.90;;;8.30;;
11245;SDS011;59870;50.106;8.580;2023-01-26T03:12:52;8.20;;;7.50;;
11245;SDS011;59870;50.106;8.580;2023-01-26T03:15:20;8.77;;;8.17;;
11245;SDS011;59870;50.106;8.580;2023-01-26T03:18:08;8.70;;;7.97;;
11245;SDS011;59870;50.106;8.580;2023-01-26T03:20:57;8.43;;;7.73;;
11245;SDS011;59870;50.106;8.580;2023-01-26T03:23:47;9.00;;;8.30;;
11245;SDS011;59870;50.106;8.580;2023-01-26T03:26:34;8.63;;;8.10;;
11245;SDS011;59870;50.106;8.580;2023-01-26T03:29:20;8.03;;;7.43;;
11245;SDS011;59870;50.106;8.580;2023-01-26T03:31:48;8.37;;;7.77;;
11245;SDS011;59870;50.106;8.580;2023-01-26T03:34:16;7.67;;;7.10;;
11245;SDS011;59870;50.106;8.580;2023-01-26T03:36:45;7.57;;;7.07;;
11245;SDS011;59870;50.106;8.580;2023-01-26T03:39:15;8.30;;;7.70;;
11245;SDS011;59870;50.106;8.580;2023-01-26T03:42:03;8.33;;;7.73;;
11245;SDS011;59870;50.106;8.580;2023-01-26T03:44:50;7.53;;;7.03;;
11245;SDS011;59870;50.106;8.580;2023-01-26T03:47:38;7.40;;;6.90;;
11245;SDS011;59870;50.106;8.580;2023-01-26T03:50:24;7.50;;;7.00;;
11245;SDS011;59870;50.106;8.580;2023-01-26T03:53:17;7.13;;;6.63;;
11245;SDS011;59870;50.106;8.580;2023-01-26T03:56:08;7.53;;;7.03;;
11245;SDS011;59870;50.106;8.580;2023-01-26T03:59:12;7.90;;;7.30;;
11245;SDS011;59870;50.106;8.580;2023-01-26T04:01:43;7.03;;;6.53;;
11245;SDS011;59870;50.106;8.580;2023-01-26T04:04:32;8.33;;;7.70;;
11245;SDS011;59870;50.106;8.580;2023-01-26T04:07:22;7.73;;;7.13;;
11245;SDS011;59870;50.106;8.580;2023-01-26T04:10:08;7.87;;;7.27;;
11245;SDS011;59870;50.106;8.580;2023-01-26T04:12:36;8.27;;;7.70;;
11245;SDS011;59870;50.106;8.580;2023-01-26T04:15:15;8.50;;;7.90;;
11245;SDS011;59870;50.106;8.580;2023-01-26T04:18:05;8.03;;;7.53;;
11245;SDS011;59870;50.106;8.580;2023-01-26T04:20:53;8.83;;;8.13;;
11245;SDS011;59870;50.106;8.580;2023-01-26T04:23:41;9.47;;;8.57;;
11245;SDS011;59870;50.106;8.580;2023-01-26T04:26:09;10.30;;;9.40;;
11245;SDS011;59870;50.106;8.580;2023-01-26T04:28:37;9.10;;;8.40;;
11245;SDS011;59870;50.106;8.580;2023-01-26T04:31:05;9.50;;;8.80;;
11245;SDS011;59870;50.106;8.580;2023-01-26T04:33:35;9.53;;;8.73;;
11245;SDS011;59870;50.106;8.580;2023-01-26T04:36:03;9.93;;;8.97;;
11245;SDS011;59870;50.106;8.580;2023-01-26T04:38:32;8.43;;;7.73;;
11245;SDS011;59870;50.106;8.580;2023-01-26T04:41:00;8.77;;;7.97;;
11245;SDS011;59870;50.106;8.580;2023-01-26T04:43:32;9.47;;;8.53;;
11245;SDS011;59870;50.106;8.580;2023-01-26T04:46:03;8.07;;;7.47;;
11245;SDS011;59870;50.106;8.580;2023-01-26T04:48:33;8.20;;;7.60;;
11245;SDS011;59870;50.106;8.580;2023-01-26T04:51:02;8.97;;;8.37;;
11245;SDS011;59870;50.106;8.580;2023-01-26T04:53:32;8.17;;;7.57;;
11245;SDS011;59870;50.106;8.580;2023-01-26T04:55:59;8.80;;;8.10;;
11245;SDS011;59870;50.106;8.580;2023-01-26T04:58:28;7.87;;;7.27;;
11245;SDS011;59870;50.106;8.580;2023-01-26T05:00:56;8.27;;;7.70;;
11245;SDS011;59870;50.106;8.580;2023-01-26T05:03:24;9.03;;;8.30;;
11245;SDS011;59870;50.106;8.580;2023-01-26T05:05:53;9.40;;;8.80;;
11245;SDS011;59870;50.106;8.580;2023-01-26T05:08:23;9.13;;;8.43;;
11245;SDS011;59870;50.106;8.580;2023-01-26T05:10:50;8.97;;;8.27;;
11245;SDS011;59870;50.106;8.580;2023-01-26T05:13:24;7.30;;;6.80;;
11245;SDS011;59870;50.106;8.580;2023-01-26T05:16:02;9.83;;;8.97;;
11245;SDS011;59870;50.106;8.580;2023-01-26T05:18:56;9.20;;;8.20;;
11245;SDS011;59870;50.106;8.580;2023-01-26T05:21:44;9.03;;;8.43;;
11245;SDS011;59870;50.106;8.580;2023-01-26T05:24:12;9.33;;;8.73;;
11245;SDS011;59870;50.106;8.580;2023-01-26T05:26:42;9.13;;;8.47;;
11245;SDS011;59870;50.106;8.580;2023-01-26T05:29:16;10.53;;;9.43;;
11245;SDS011;59870;50.106;8.580;2023-01-26T05:31:44;10.67;;;9.77;;
11245;SDS011;59870;50.106;8.580;2023-01-26T05:34:12;9.80;;;9.00;;
11245;SDS011;59870;50.106;8.580;2023-01-26T05:36:39;12.10;;;10.90;;
11245;SDS011;59870;50.106;8.580;2023-01-26T05:39:07;13.00;;;9.87;;
11245;SDS011;59870;50.106;8.580;2023-01-26T05:41:35;10.07;;;9.23;;
11245;SDS011;59870;50.106;8.580;2023-01-26T05:44:17;11.20;;;10.30;;
11245;SDS011;59870;50.106;8.580;2023-01-26T05:46:52;9.90;;;9.13;;
11245;SDS011;59870;50.106;8.580;2023-01-26T05:49:19;10.63;;;9.83;;
11245;SDS011;59870;50.106;8.580;2023-01-26T05:51:47;10.53;;;9.73;;
11245;SDS011;59870;50.106;8.580;2023-01-26T05:54:14;9.70;;;8.90;;
11245;SDS011;59870;50.106;8.580;2023-01-26T05:56:42;9.50;;;8.57;;
11245;SDS011;59870;50.106;8.580;2023-01-26T05:59:09;9.87;;;9.10;;
11245;SDS011;59870;50.106;8.580;2023-01-26T06:01:37;10.27;;;9.47;;
11245;SDS011;59870;50.106;8.580;2023-01-26T06:04:07;10.40;;;9.57;;
11245;SDS011;59870;50.106;8.580;2023-01-26T06:06:40;10.07;;;9.33;;
11245;SDS011;59870;50.106;8.580;2023-01-26T06:09:21;9.33;;;8.53;;
11245;SDS011;59870;50.106;8.580;2023-01-26T06:12:15;7.87;;;7.20;;
11245;SDS011;59870;50.106;8.580;2023-01-26T06:15:05;7.50;;;6.93;;
11245;SDS011;59870;50.106;8.580;2023-01-26T06:17:37;8.27;;;7.73;;
11245;SDS011;59870;50.106;8.580;2023-01-26T06:20:07;8.70;;;8.20;;
11245;SDS011;59870;50.106;8.580;2023-01-26T06:22:36;9.37;;;8.37;;
11245;SDS011;59870;50.106;8.580;2023-01-26T06:25:03;9.60;;;8.50;;
11245;SDS011;59870;50.106;8.580;2023-01-26T06:27:31;8.13;;;7.57;;
11245;SDS011;59870;50.106;8.580;2023-01-26T06:30:02;9.17;;;8.37;;
11245;SDS011;59870;50.106;8.580;2023-01-26T06:32:31;9.43;;;8.77;;
11245;SDS011;59870;50.106;8.580;2023-01-26T06:34:59;9.63;;;8.73;;
11245;SDS011;59870;50.106;8.580;2023-01-26T06:37:26;9.90;;;9.10;;
11245;SDS011;59870;50.106;8.580;2023-01-26T06:39:54;9.30;;;8.57;;
11245;SDS011;59870;50.106;8.580;2023-01-26T06:42:21;8.73;;;8.13;;
11245;SDS011;59870;50.106;8.580;2023-01-26T06:44:50;9.10;;;8.37;;
11245;SDS011;59870;50.106;8.580;2023-01-26T06:47:17;9.77;;;8.97;;
11245;SDS011;59870;50.106;8.580;2023-01-26T06:49:45;11.27;;;10.27;;
11245;SDS011;59870;50.106;8.580;2023-01-26T06:52:21;10.07;;;9.17;;
11245;SDS011;59870;50.106;8.580;2023-01-26T06:54:58;10.17;;;9.27;;
11245;SDS011;59870;50.106;8.580;2023-01-26T06:57:48;9.80;;;9.00;;
11245;SDS011;59870;50.106;8.580;2023-01-26T07:00:51;9.20;;;8.53;;
11245;SDS011;59870;50.106;8.580;2023-01-26T07:03:27;8.37;;;7.77;;
11245;SDS011;59870;50.106;8.580;2023-01-26T07:05:55;7.87;;;7.27;;
11245;SDS011;59870;50.106;8.580;2023-01-26T07:08:23;8.20;;;7.60;;
11245;SDS011;59870;50.106;8.580;2023-01-26T07:10:50;8.33;;;7.73;;
11245;SDS011;59870;50.106;8.580;2023-01-26T07:13:19;9.43;;;8.73;;
11245;SDS011;59870;50.106;8.580;2023-01-26T07:15:46;8.97;;;8.23;;
11245;SDS011;59870;50.106;8.580;2023-01-26T07:18:13;8.27;;;7.57;;
11245;SDS011;59870;50.106;8.580;2023-01-26T07:20:41;8.70;;;8.00;;
11245;SDS011;59870;50.106;8.580;2023-01-26T07:23:09;7.97;;;7.43;;
11245;SDS011;59870;50.106;8.580;2023-01-26T07:25:36;8.53;;;7.87;;
11245;SDS011;59870;50.106;8.580;2023-01-26T07:28:04;8.37;;;7.87;;
11245;SDS011;59870;50.106;8.580;2023-01-26T07:30:31;8.40;;;7.80;;
11245;SDS011;59870;50.106;8.580;2023-01-26T07:32:58;9.03;;;8.33;;
11245;SDS011;59870;50.106;8.580;2023-01-26T07:35:26;8.53;;;7.87;;
11245;SDS011;59870;50.106;8.580;2023-01-26T07:37:55;8.77;;;8.17;;
11245;SDS011;59870;50.106;8.580;2023-01-26T07:40:24;8.70;;;8.10;;
11245;SDS011;59870;50.106;8.580;2023-01-26T07:42:54;8.43;;;7.90;;
11245;SDS011;59870;50.106;8.580;2023-01-26T07:45:47;9.33;;;8.63;;
11245;SDS011;59870;50.106;8.580;2023-01-26T07:48:20;8.33;;;7.63;;
11245;SDS011;59870;50.106;8.580;2023-01-26T07:50:49;8.23;;;7.53;;
11245;SDS011;59870;50.106;8.580;2023-01-26T07:53:17;8.87;;;8.27;;
11245;SDS011;59870;50.106;8.580;2023-01-26T07:55:48;8.67;;;7.97;;
11245;SDS011;59870;50.106;8.580;2023-01-26T07:58:16;8.03;;;7.33;;
11245;SDS011;59870;50.106;8.580;2023-01-26T08:00:47;9.93;;;9.03;;
11245;SDS011;59870;50.106;8.580;2023-01-26T08:03:15;9.87;;;8.90;;
11245;SDS011;59870;50.106;8.580;2023-01-26T08:05:42;8.27;;;7.67;;
11245;SDS011;59870;50.106;8.580;2023-01-26T08:08:10;8.70;;;8.10;;
11245;SDS011;59870;50.106;8.580;2023-01-26T08:10:38;8.93;;;8.23;;
11245;SDS011;59870;50.106;8.580;2023-01-26T08:13:06;9.40;;;8.80;;
11245;SDS011;59870;50.106;8.580;2023-01-26T08:15:33;8.67;;;7.97;;
11245;SDS011;59870;50.106;8.580;2023-01-26T08:18:01;7.83;;;7.33;;
11245;SDS011;59870;50.106;8.580;2023-01-26T08:20:30;7.97;;;7.47;;
11245;SDS011;59870;50.106;8.580;2023-01-26T08:22:58;7.87;;;7.37;;
11245;SDS011;59870;50.106;8.580;2023-01-26T08:25:26;7.43;;;7.00;;
11245;SDS011;59870;50.106;8.580;2023-01-26T08:27:54;8.43;;;7.83;;
11245;SDS011;59870;50.106;8.580;2023-01-26T08:30:22;7.90;;;7.40;;
11245;SDS011;59870;50.106;8.580;2023-01-26T08:32:49;7.43;;;7.03;;
11245;SDS011;59870;50.106;8.580;2023-01-26T08:35:17;7.13;;;6.73;;
11245;SDS011;59870;50.106;8.580;2023-01-26T08:37:44;7.83;;;7.17;;
11245;SDS011;59870;50.106;8.580;2023-01-26T08:40:12;8.03;;;7.40;;
11245;SDS011;59870;50.106;8.580;2023-01-26T08:42:40;7.47;;;7.00;;
11245;SDS011;59870;50.106;8.580;2023-01-26T08:45:07;7.77;;;7.20;;
11245;SDS011;59870;50.106;8.580;2023-01-26T08:47:35;8.90;;;8.13;;
11245;SDS011;59870;50.106;8.580;2023-01-26T08:50:03;8.00;;;7.40;;
11245;SDS011;59870;50.106;8.580;2023-01-26T08:52:30;8.47;;;7.87;;
11245;SDS011;59870;50.106;8.580;2023-01-26T08:54:58;7.77;;;7.07;;
11245;SDS011;59870;50.106;8.580;2023-01-26T08:57:27;8.60;;;8.00;;
11245;SDS011;59870;50.106;8.580;2023-01-26T08:59:54;9.37;;;8.67;;
11245;SDS011;59870;50.106;8.580;2023-01-26T09:02:22;8.53;;;7.93;;
11245;SDS011;59870;50.106;8.580;2023-01-26T09:04:49;8.60;;;7.93;;
11245;SDS011;59870;50.106;8.580;2023-01-26T09:07:17;8.73;;;7.97;;
11245;SDS011;59870;50.106;8.580;2023-01-26T09:09:44;9.50;;;8.37;;
11245;SDS011;59870;50.106;8.580;2023-01-26T09:12:12;8.87;;;8.17;;
11245;SDS011;59870;50.106;8.580;2023-01-26T09:14:39;9.70;;;9.00;;
11245;SDS011;59870;50.106;8.580;2023-01-26T09:17:07;8.27;;;7.63;;
11245;SDS011;59870;50.106;8.580;2023-01-26T09:19:34;9.40;;;8.60;;
11245;SDS011;59870;50.106;8.580;2023-01-26T09:22:02;9.73;;;9.03;;
11245;SDS011;59870;50.106;8.580;2023-01-26T09:24:29;10.17;;;9.37;;
11245;SDS011;59870;50.106;8.580;2023-01-26T09:26:57;9.03;;;8.33;;
11245;SDS011;59870;50.106;8.580;2023-01-26T09:29:24;10.30;;;9.50;;
11245;SDS011;59870;50.106;8.580;2023-01-26T09:31:52;10.50;;;9.70;;
11245;SDS011;59870;50.106;8.580;2023-01-26T09:34:20;10.27;;;9.47;;
11245;SDS011;59870;50.106;8.580;2023-01-26T09:36:47;9.97;;;9.17;;
11245;SDS011;59870;50.106;8.580;2023-01-26T09:39:14;10.20;;;9.20;;
11245;SDS011;59870;50.106;8.580;2023-01-26T09:41:46;9.63;;;8.93;;
11245;SDS011;59870;50.106;8.580;2023-01-26T09:44:29;9.47;;;8.77;;
11245;SDS011;59870;50.106;8.580;2023-01-26T09:47:17;10.63;;;9.93;;
11245;SDS011;59870;50.106;8.580;2023-01-26T09:50:09;8.97;;;8.33;;
11245;SDS011;59870;50.106;8.580;2023-01-26T09:52:54;9.70;;;8.90;;
11245;SDS011;59870;50.106;8.580;2023-01-26T09:55:23;10.50;;;9.53;;
11245;SDS011;59870;50.106;8.580;2023-01-26T09:57:56;11.23;;;10.23;;
11245;SDS011;59870;50.106;8.580;2023-01-26T10:00:38;9.77;;;9.03;;
11245;SDS011;59870;50.106;8.580;2023-01-26T10:03:16;10.57;;;9.60;;
11245;SDS011;59870;50.106;8.580;2023-01-26T10:09:10;10.73;;;9.83;;
11245;SDS011;59870;50.106;8.580;2023-01-26T10:11:45;10.10;;;9.30;;
11245;SDS011;59870;50.106;8.580;2023-01-26T10:16:59;10.03;;;9.33;;
11245;SDS011;59870;50.106;8.580;2023-01-26T10:19:36;10.40;;;9.60;;
11245;SDS011;59870;50.106;8.580;2023-01-26T10:22:13;10.40;;;9.50;;
11245;SDS011;59870;50.106;8.580;2023-01-26T10:24:46;11.40;;;10.50;;
11245;SDS011;59870;50.106;8.580;2023-01-26T10:27:16;11.17;;;10.20;;
11245;SDS011;59870;50.106;8.580;2023-01-26T10:29:44;10.10;;;9.33;;
11245;SDS011;59870;50.106;8.580;2023-01-26T10:32:13;11.23;;;10.17;;
11245;SDS011;59870;50.106;8.580;2023-01-26T10:34:44;10.73;;;9.93;;
11245;SDS011;59870;50.106;8.580;2023-01-26T10:37:21;10.37;;;9.57;;
11245;SDS011;59870;50.106;8.580;2023-01-26T10:39:55;13.93;;;9.93;;
11245;SDS011;59870;50.106;8.580;2023-01-26T10:42:26;11.00;;;10.03;;
11245;SDS011;59870;50.106;8.580;2023-01-26T10:44:57;10.30;;;9.40;;
11245;SDS011;59870;50.106;8.580;2023-01-26T10:47:28;9.30;;;8.50;;
11245;SDS011;59870;50.106;8.580;2023-01-26T10:52:57;11.00;;;9.97;;
11245;SDS011;59870;50.106;8.580;2023-01-26T10:55:29;11.17;;;10.03;;
11245;SDS011;59870;50.106;8.580;2023-01-26T10:57:58;10.93;;;10.13;;
11245;SDS011;59870;50.106;8.580;2023-01-26T11:00:27;10.47;;;9.67;;
11245;SDS011;59870;50.106;8.580;2023-01-26T11:05:40;11.70;;;10.67;;
11245;SDS011;59870;50.106;8.580;2023-01-26T11:08:52;12.03;;;10.93;;
11245;SDS011;59870;50.106;8.580;2023-01-26T11:11:01;10.20;;;9.43;;
11245;SDS011;59870;50.106;8.580;2023-01-26T11:13:30;11.77;;;10.73;;
11245;SDS011;59870;50.106;8.580;2023-01-26T11:16:13;11.80;;;10.67;;
11245;SDS011;59870;50.106;8.580;2023-01-26T11:24:01;11.57;;;10.57;;
11245;SDS011;59870;50.106;8.580;2023-01-26T11:26:37;11.57;;;10.57;;
11245;SDS011;59870;50.106;8.580;2023-01-26T11:29:45;11.53;;;10.53;;
11245;SDS011;59870;50.106;8.580;2023-01-26T11:32:54;11.03;;;10.03;;
11245;SDS011;59870;50.106;8.580;2023-01-26T11:38:37;12.53;;;11.37;;
11245;SDS011;59870;50.106;8.580;2023-01-26T11:44:13;12.00;;;10.93;;
11245;SDS011;59870;50.106;8.580;2023-01-26T11:46:52;13.00;;;11.80;;
11245;SDS011;59870;50.106;8.580;2023-01-26T11:54:36;12.97;;;11.77;;
11245;SDS011;59870;50.106;8.580;2023-01-26T12:00:05;10.40;;;8.60;;
11245;SDS011;59870;50.106;8.580;2023-01-26T12:03:03;9.97;;;9.23;;
11245;SDS011;59870;50.106;8.580;2023-01-26T12:05:49;10.20;;;8.97;;
11245;SDS011;59870;50.106;8.580;2023-01-26T12:08:21;10.53;;;9.50;;
11245;SDS011;59870;50.106;8.580;2023-01-26T12:11:03;9.83;;;9.13;;
11245;SDS011;59870;50.106;8.580;2023-01-26T12:13:54;12.90;;;11.57;;
11245;SDS011;59870;50.106;8.580;2023-01-26T12:19:11;12.87;;;11.80;;
11245;SDS011;59870;50.106;8.580;2023-01-26T12:21:56;12.03;;;11.03;;
11245;SDS011;59870;50.106;8.580;2023-01-26T12:24:34;11.53;;;10.53;;
11245;SDS011;59870;50.106;8.580;2023-01-26T12:27:29;11.67;;;10.57;;
11245;SDS011;59870;50.106;8.580;2023-01-26T12:32:56;11.17;;;10.07;;
11245;SDS011;59870;50.106;8.580;2023-01-26T12:35:34;11.03;;;9.93;;
11245;SDS011;59870;50.106;8.580;2023-01-26T12:38:30;11.93;;;10.83;;
11245;SDS011;59870;50.106;8.580;2023-01-26T12:46:46;12.97;;;11.50;;
11245;SDS011;59870;50.106;8.580;2023-01-26T12:49:25;13.03;;;11.83;;
11245;SDS011;59870;50.106;8.580;2023-01-26T12:52:17;12.27;;;11.20;;
11245;SDS011;59870;50.106;8.580;2023-01-26T12:57:41;12.53;;;11.20;;
11245;SDS011;59870;50.106;8.580;2023-01-26T13:00:17;12.03;;;10.87;;
11245;SDS011;59870;50.106;8.580;2023-01-26T13:02:46;12.77;;;11.43;;
11245;SDS011;59870;50.106;8.580;2023-01-26T13:05:25;14.37;;;12.23;;
11245;SDS011;59870;50.106;8.580;2023-01-26T13:07:55;12.23;;;11.13;;
11245;SDS011;59870;50.106;8.580;2023-01-26T13:10:23;12.83;;;11.57;;
11245;SDS011;59870;50.106;8.580;2023-01-26T13:12:57;12.13;;;11.03;;
11245;SDS011;59870;50.106;8.580;2023-01-26T13:18:48;13.87;;;12.27;;
11245;SDS011;59870;50.106;8.580;2023-01-26T13:21:24;13.27;;;11.90;;
11245;SDS011;59870;50.106;8.580;2023-01-26T13:23:52;14.17;;;11.73;;
11245;SDS011;59870;50.106;8.580;2023-01-26T13:26:23;13.33;;;11.97;;
11245;SDS011;59870;50.106;8.580;2023-01-26T13:31:50;16.47;;;12.30;;
11245;SDS011;59870;50.106;8.580;2023-01-26T13:34:26;13.40;;;12.00;;
11245;SDS011;59870;50.106;8.580;2023-01-26T13:37:10;14.87;;;12.93;;
11245;SDS011;59870;50.106;8.580;2023-01-26T13:39:51;16.17;;;12.13;;
11245;SDS011;59870;50.106;8.580;2023-01-26T13:42:22;14.97;;;12.97;;
11245;SDS011;59870;50.106;8.580;2023-01-26T13:44:58;15.57;;;12.10;;
11245;SDS011;59870;50.106;8.580;2023-01-26T13:47:30;16.00;;;12.93;;
11245;SDS011;59870;50.106;8.580;2023-01-26T13:52:58;19.67;;;14.23;;
11245;SDS011;59870;50.106;8.580;2023-01-26T13:55:27;16.23;;;13.00;;
11245;SDS011;59870;50.106;8.580;2023-01-26T13:58:10;16.03;;;13.53;;
11245;SDS011;59870;50.106;8.580;2023-01-26T14:00:40;16.30;;;13.47;;
11245;SDS011;59870;50.106;8.580;2023-01-26T14:03:19;19.30;;;13.80;;
11245;SDS011;59870;50.106;8.580;2023-01-26T14:05:59;19.30;;;14.63;;
11245;SDS011;59870;50.106;8.580;2023-01-26T14:08:34;20.90;;;14.53;;
11245;SDS011;59870;50.106;8.580;2023-01-26T14:11:17;17.33;;;13.43;;
11245;SDS011;59870;50.106;8.580;2023-01-26T14:13:54;14.90;;;13.03;;
11245;SDS011;59870;50.106;8.580;2023-01-26T14:16:30;16.17;;;13.17;;
11245;SDS011;59870;50.106;8.580;2023-01-26T14:19:26;14.60;;;12.23;;
11245;SDS011;59870;50.106;8.580;2023-01-26T14:21:57;18.80;;;13.03;;
11245;SDS011;59870;50.106;8.580;2023-01-26T14:24:32;18.47;;;14.43;;
11245;SDS011;59870;50.106;8.580;2023-01-26T14:27:01;14.13;;;12.43;;
11245;SDS011;59870;50.106;8.580;2023-01-26T14:29:30;16.33;;;13.83;;
11245;SDS011;59870;50.106;8.580;2023-01-26T14:32:04;16.63;;;13.73;;
11245;SDS011;59870;50.106;8.580;2023-01-26T14:34:54;18.77;;;13.50;;
11245;SDS011;59870;50.106;8.580;2023-01-26T14:37:24;16.10;;;14.40;;
11245;SDS011;59870;50.106;8.580;2023-01-26T14:40:13;16.10;;;12.93;;
11245;SDS011;59870;50.106;8.580;2023-01-26T14:42:48;17.63;;;14.90;;
11245;SDS011;59870;50.106;8.580;2023-01-26T14:45:25;18.50;;;14.57;;
11245;SDS011;59870;50.106;8.580;2023-01-26T14:48:01;17.27;;;14.20;;
11245;SDS011;59870;50.106;8.580;2023-01-26T14:50:33;22.70;;;16.50;;
11245;SDS011;59870;50.106;8.580;2023-01-26T14:53:02;21.37;;;15.77;;
11245;SDS011;59870;50.106;8.580;2023-01-26T14:55:33;18.93;;;14.03;;
11245;SDS011;59870;50.106;8.580;2023-01-26T14:58:02;23.63;;;16.30;;
11245;SDS011;59870;50.106;8.580;2023-01-26T15:00:48;20.47;;;14.43;;
11245;SDS011;59870;50.106;8.580;2023-01-26T15:03:19;20.63;;;14.93;;
11245;SDS011;59870;50.106;8.580;2023-01-26T15:06:16;26.27;;;16.83;;
11245;SDS011;59870;50.106;8.580;2023-01-26T15:08:53;22.70;;;18.43;;
11245;SDS011;59870;50.106;8.580;2023-01-26T15:11:42;26.30;;;19.87;;
11245;SDS011;59870;50.106;8.580;2023-01-26T15:14:58;22.03;;;15.63;;
11245;SDS011;59870;50.106;8.580;2023-01-26T15:17:46;22.10;;;16.10;;
11245;SDS011;59870;50.106;8.580;2023-01-26T15:22:53;29.30;;;17.87;;
11245;SDS011;59870;50.106;8.580;2023-01-26T15:25:30;24.37;;;17.80;;
11245;SDS011;59870;50.106;8.580;2023-01-26T15:27:59;22.43;;;16.07;;
11245;SDS011;59870;50.106;8.580;2023-01-26T15:30:28;20.27;;;14.73;;
11245;SDS011;59870;50.106;8.580;2023-01-26T15:32:58;20.50;;;16.17;;
11245;SDS011;59870;50.106;8.580;2023-01-26T15:35:28;19.50;;;14.47;;
11245;SDS011;59870;50.106;8.580;2023-01-26T15:38:02;22.00;;;15.00;;
11245;SDS011;59870;50.106;8.580;2023-01-26T15:40:37;18.83;;;15.07;;
11245;SDS011;59870;50.106;8.580;2023-01-26T15:45:39;18.00;;;14.77;;
11245;SDS011;59870;50.106;8.580;2023-01-26T15:48:28;19.73;;;14.03;;
11245;SDS011;59870;50.106;8.580;2023-01-26T15:50:57;26.43;;;15.07;;
11245;SDS011;59870;50.106;8.580;2023-01-26T15:53:24;18.37;;;14.47;;
11245;SDS011;59870;50.106;8.580;2023-01-26T15:55:52;22.37;;;17.93;;
11245;SDS011;59870;50.106;8.580;2023-01-26T15:58:23;23.40;;;16.33;;
11245;SDS011;59870;50.106;8.580;2023-01-26T16:00:51;22.50;;;15.47;;
11245;SDS011;59870;50.106;8.580;2023-01-26T16:03:19;23.37;;;15.60;;
11245;SDS011;59870;50.106;8.580;2023-01-26T16:05:48;19.20;;;15.63;;
11245;SDS011;59870;50.106;8.580;2023-01-26T16:08:16;20.50;;;15.87;;
11245;SDS011;59870;50.106;8.580;2023-01-26T16:10:48;21.70;;;14.70;;
11245;SDS011;59870;50.106;8.580;2023-01-26T16:13:16;22.60;;;15.10;;
11245;SDS011;59870;50.106;8.580;2023-01-26T16:15:45;21.97;;;16.07;;
11245;SDS011;59870;50.106;8.580;2023-01-26T16:18:18;19.00;;;14.93;;
11245;SDS011;59870;50.106;8.580;2023-01-26T16:20:47;23.87;;;15.97;;